createdAt,value
2023-03-22T00:00:06.643Z,0
2023-03-22T00:01:15.821Z,0
2023-03-22T00:02:24.005Z,0
2023-03-22T00:03:32.184Z,0
2023-03-22T00:04:41.366Z,0
2023-03-22T00:05:50.527Z,0
2023-03-22T00:06:59.719Z,0
2023-03-22T00:08:08.887Z,0
2023-03-22T00:09:18.178Z,0
2023-03-22T00:10:27.222Z,0
2023-03-22T00:11:36.517Z,0
2023-03-22T00:12:45.661Z,0
2023-03-22T00:13:54.739Z,0
2023-03-22T00:15:04.029Z,0
2023-03-22T00:16:13.085Z,0
2023-03-22T00:17:22.256Z,0
2023-03-22T00:18:30.438Z,0
2023-03-22T00:19:39.650Z,0
2023-03-22T00:20:48.798Z,0
2023-03-22T00:21:58.109Z,0
2023-03-22T00:23:07.234Z,0
2023-03-22T00:24:16.308Z,0
2023-03-22T00:25:25.466Z,0
2023-03-22T00:26:33.667Z,0
2023-03-22T00:27:41.860Z,0
2023-03-22T00:28:50.059Z,0
2023-03-22T00:29:58.245Z,0
2023-03-22T00:31:07.503Z,0
2023-03-22T00:32:16.616Z,0
2023-03-22T00:33:25.771Z,0
2023-03-22T00:34:34.961Z,0
2023-03-22T00:35:44.114Z,0
2023-03-22T00:36:53.427Z,0
2023-03-22T00:38:02.513Z,0
2023-03-22T00:39:11.679Z,0
2023-03-22T00:40:20.793Z,0
2023-03-22T00:41:30.061Z,0
2023-03-22T00:42:39.190Z,0
2023-03-22T00:43:48.387Z,0
2023-03-22T00:44:56.503Z,0
2023-03-22T00:46:05.675Z,0
2023-03-22T00:47:14.846Z,0
2023-03-22T00:48:24.083Z,0
2023-03-22T00:49:33.200Z,0
2023-03-22T00:50:42.552Z,0
2023-03-22T00:51:51.661Z,0
2023-03-22T00:52:59.739Z,0
2023-03-22T00:54:07.929Z,0
2023-03-22T00:55:17.113Z,0
2023-03-22T00:56:26.312Z,0
2023-03-22T00:57:35.448Z,0
2023-03-22T00:58:44.633Z,0
2023-03-22T00:59:53.788Z,0
2023-03-22T01:01:02.953Z,0
2023-03-22T01:02:12.136Z,0
2023-03-22T01:03:21.292Z,0
2023-03-22T01:04:30.504Z,0
2023-03-22T01:05:39.674Z,0
2023-03-22T01:06:48.827Z,0
2023-03-22T01:07:58.016Z,0
2023-03-22T01:09:06.235Z,0
2023-03-22T01:10:15.342Z,0
2023-03-22T01:11:24.636Z,0
2023-03-22T01:12:33.698Z,0
2023-03-22T01:13:42.902Z,0
2023-03-22T01:14:52.099Z,0
2023-03-22T01:16:01.243Z,0
2023-03-22T01:17:09.402Z,0
2023-03-22T01:18:17.593Z,0
2023-03-22T01:19:25.874Z,0
2023-03-22T01:20:34.082Z,0
2023-03-22T01:21:43.215Z,0
2023-03-22T01:22:52.320Z,0
2023-03-22T01:24:01.494Z,0
2023-03-22T01:25:10.660Z,0
2023-03-22T01:26:19.992Z,0
2023-03-22T01:27:29.009Z,0
2023-03-22T01:28:38.214Z,0
2023-03-22T01:29:47.344Z,0
2023-03-22T01:30:56.614Z,0
2023-03-22T01:32:05.729Z,0
2023-03-22T01:33:14.878Z,0
2023-03-22T01:34:24.139Z,0
2023-03-22T01:35:32.272Z,0
2023-03-22T01:36:41.457Z,0
2023-03-22T01:37:49.599Z,0
2023-03-22T01:38:58.890Z,0
2023-03-22T01:40:07.976Z,0
2023-03-22T01:41:17.218Z,0
2023-03-22T01:42:26.289Z,0
2023-03-22T01:43:34.540Z,0
2023-03-22T01:44:42.766Z,0
2023-03-22T01:45:51.918Z,0
2023-03-22T01:47:00.083Z,0
2023-03-22T01:48:08.251Z,0
2023-03-22T01:49:17.400Z,0
2023-03-22T01:50:26.634Z,0
2023-03-22T01:51:35.843Z,0
2023-03-22T01:52:44.990Z,0
2023-03-22T01:53:54.154Z,0
2023-03-22T01:55:03.277Z,0
2023-03-22T01:56:12.535Z,0
2023-03-22T01:57:21.641Z,0
2023-03-22T01:58:30.812Z,0
2023-03-22T01:59:39.952Z,0
2023-03-22T02:00:49.180Z,0
2023-03-22T02:01:58.306Z,0
2023-03-22T02:03:06.484Z,0
2023-03-22T02:05:24.853Z,0
2023-03-22T02:06:34.001Z,0
2023-03-22T02:07:43.278Z,0
2023-03-22T02:08:52.365Z,0
2023-03-22T02:10:01.533Z,0
2023-03-22T02:11:10.807Z,0
2023-03-22T02:12:18.908Z,0
2023-03-22T02:13:27.101Z,0
2023-03-22T02:15:45.423Z,0
2023-03-22T02:16:54.589Z,0
2023-03-22T02:18:03.765Z,0
2023-03-22T02:19:12.939Z,0
2023-03-22T02:20:22.112Z,0
2023-03-22T02:21:31.291Z,0
2023-03-22T02:22:40.463Z,0
2023-03-22T02:23:49.621Z,0
2023-03-22T02:24:58.807Z,0
2023-03-22T02:26:07.964Z,0
2023-03-22T02:27:17.152Z,0
2023-03-22T02:28:25.342Z,0
2023-03-22T02:29:34.514Z,0
2023-03-22T02:30:43.676Z,0
2023-03-22T02:31:52.916Z,0
2023-03-22T02:33:02.035Z,0
2023-03-22T02:34:11.204Z,0
2023-03-22T02:36:29.531Z,0
2023-03-22T02:37:38.709Z,0
2023-03-22T02:38:46.945Z,0
2023-03-22T02:39:55.178Z,0
2023-03-22T02:41:03.402Z,0
2023-03-22T02:42:12.619Z,0
2023-03-22T02:43:20.716Z,0
2023-03-22T02:44:28.955Z,0
2023-03-22T02:45:38.018Z,0
2023-03-22T02:46:47.193Z,0
2023-03-22T02:47:56.367Z,0
2023-03-22T02:49:05.550Z,0
2023-03-22T02:50:14.717Z,0
2023-03-22T02:51:23.890Z,0
2023-03-22T02:52:33.093Z,0
2023-03-22T02:53:42.328Z,0
2023-03-22T02:54:51.406Z,0
2023-03-22T02:56:00.600Z,0
2023-03-22T02:57:09.738Z,0
2023-03-22T02:58:18.957Z,0
2023-03-22T02:59:27.096Z,0
2023-03-22T03:00:36.453Z,0
2023-03-22T03:01:45.446Z,0
2023-03-22T03:02:54.603Z,0
2023-03-22T03:04:03.791Z,0
2023-03-22T03:05:12.958Z,0
2023-03-22T03:06:22.169Z,0
2023-03-22T03:07:30.330Z,0
2023-03-22T03:08:38.520Z,0
2023-03-22T03:09:46.721Z,0
2023-03-22T03:10:54.963Z,0
2023-03-22T03:12:04.236Z,0
2023-03-22T03:13:13.283Z,0
2023-03-22T03:14:22.420Z,0
2023-03-22T03:15:31.659Z,0
2023-03-22T03:16:40.775Z,0
2023-03-22T03:17:49.941Z,0
2023-03-22T03:18:59.123Z,0
2023-03-22T03:20:08.309Z,0
2023-03-22T03:22:26.726Z,0
2023-03-22T03:23:35.864Z,0
2023-03-22T03:24:45.049Z,0
2023-03-22T03:25:53.200Z,0
2023-03-22T03:27:02.549Z,0
2023-03-22T03:28:11.502Z,0
2023-03-22T03:29:20.724Z,0
2023-03-22T03:30:29.998Z,0
2023-03-22T03:31:39.062Z,0
2023-03-22T03:32:48.211Z,0
2023-03-22T03:33:57.475Z,0
2023-03-22T03:35:05.552Z,0
2023-03-22T03:36:13.882Z,0
2023-03-22T03:37:22.017Z,0
2023-03-22T03:38:30.143Z,0
2023-03-22T03:39:39.406Z,0
2023-03-22T03:40:48.473Z,0
2023-03-22T03:41:57.642Z,0
2023-03-22T03:43:06.846Z,0
2023-03-22T03:44:16.012Z,0
2023-03-22T03:45:25.204Z,0
2023-03-22T03:46:34.404Z,0
2023-03-22T03:47:43.557Z,0
2023-03-22T03:48:52.730Z,0
2023-03-22T03:50:01.995Z,0
2023-03-22T03:51:11.053Z,0
2023-03-22T03:52:20.290Z,0
2023-03-22T03:54:37.580Z,0
2023-03-22T03:55:46.758Z,0
2023-03-22T03:56:55.945Z,0
2023-03-22T03:58:05.085Z,0
2023-03-22T03:59:14.305Z,0
2023-03-22T04:00:23.441Z,0
2023-03-22T04:01:32.605Z,0
2023-03-22T04:02:40.792Z,0
2023-03-22T04:03:48.971Z,0
2023-03-22T04:04:58.167Z,0
2023-03-22T04:06:06.402Z,0
2023-03-22T04:07:14.540Z,0
2023-03-22T04:08:23.755Z,0
2023-03-22T04:09:32.875Z,0
2023-03-22T04:10:42.057Z,0
2023-03-22T04:11:51.275Z,0
2023-03-22T04:13:00.400Z,0
2023-03-22T04:14:09.625Z,0
2023-03-22T04:15:18.748Z,0
2023-03-22T04:16:27.912Z,0
2023-03-22T04:17:37.110Z,0
2023-03-22T04:18:46.275Z,0
2023-03-22T04:19:55.429Z,0
2023-03-22T04:21:04.615Z,0
2023-03-22T04:22:12.851Z,0
2023-03-22T04:23:21.982Z,0
2023-03-22T04:24:31.139Z,0
2023-03-22T04:25:40.311Z,0
2023-03-22T04:26:49.548Z,0
2023-03-22T04:27:58.722Z,0
2023-03-22T04:29:07.824Z,0
2023-03-22T04:30:16.026Z,0
2023-03-22T04:31:24.202Z,0
2023-03-22T04:32:32.405Z,0
2023-03-22T04:33:40.600Z,0
2023-03-22T04:34:49.767Z,0
2023-03-22T04:35:58.941Z,0
2023-03-22T04:37:08.102Z,0
2023-03-22T04:38:17.281Z,0
2023-03-22T04:39:26.477Z,0
2023-03-22T04:40:35.698Z,0
2023-03-22T04:41:44.790Z,0
2023-03-22T04:42:54.095Z,0
2023-03-22T04:44:03.140Z,0
2023-03-22T04:45:12.339Z,0
2023-03-22T04:46:21.483Z,0
2023-03-22T04:47:30.713Z,0
2023-03-22T04:48:38.969Z,0
2023-03-22T04:49:48.081Z,0
2023-03-22T04:50:57.377Z,0
2023-03-22T04:52:06.511Z,0
2023-03-22T04:53:15.564Z,3
2023-03-22T04:54:24.805Z,3
2023-03-22T04:55:33.960Z,3
2023-03-22T04:56:42.094Z,3
2023-03-22T04:57:50.289Z,3
2023-03-22T05:00:07.653Z,4
2023-03-22T05:01:15.824Z,0
2023-03-22T05:02:24.011Z,4
2023-03-22T05:03:33.189Z,4
2023-03-22T05:04:42.362Z,9
2023-03-22T05:05:51.533Z,1
2023-03-22T05:07:00.730Z,5
2023-03-22T05:08:09.868Z,5
2023-03-22T05:09:19.061Z,10
2023-03-22T05:10:28.324Z,6
2023-03-22T05:11:37.401Z,10
2023-03-22T05:12:46.572Z,32
2023-03-22T05:13:55.811Z,28
2023-03-22T05:15:05.022Z,16
2023-03-22T05:16:14.084Z,12
2023-03-22T05:17:23.328Z,12
2023-03-22T05:18:31.435Z,39
2023-03-22T05:19:40.661Z,44
2023-03-22T05:20:49.813Z,41
2023-03-22T05:21:58.992Z,47
2023-03-22T05:23:08.158Z,49
2023-03-22T05:24:17.308Z,56
2023-03-22T05:25:26.488Z,63
2023-03-22T05:26:35.647Z,66
2023-03-22T05:27:44.868Z,74
2023-03-22T05:28:53.041Z,86
2023-03-22T05:30:02.207Z,107
2023-03-22T05:31:10.384Z,114
2023-03-22T05:32:18.564Z,127
2023-03-22T05:33:26.808Z,140
2023-03-22T05:34:34.953Z,140
2023-03-22T05:35:44.199Z,159
2023-03-22T05:36:53.476Z,174
2023-03-22T05:38:02.531Z,211
2023-03-22T05:39:11.670Z,242
2023-03-22T05:40:20.825Z,286
2023-03-22T05:41:30.018Z,330
2023-03-22T05:42:39.173Z,364
2023-03-22T05:43:48.435Z,426
2023-03-22T05:44:57.522Z,466
2023-03-22T05:46:06.712Z,506
2023-03-22T05:47:15.858Z,539
2023-03-22T05:48:25.026Z,532
2023-03-22T05:49:34.233Z,553
2023-03-22T05:50:42.393Z,598
2023-03-22T05:51:51.576Z,622
2023-03-22T05:53:00.757Z,662
2023-03-22T05:54:09.910Z,687
2023-03-22T05:55:19.090Z,683
2023-03-22T05:56:28.262Z,741
2023-03-22T05:58:45.680Z,848
2023-03-22T05:59:53.814Z,993
2023-03-22T06:01:01.999Z,971
2023-03-22T06:02:10.195Z,987
2023-03-22T06:03:18.412Z,1025
2023-03-22T06:04:27.600Z,1039
2023-03-22T06:05:36.752Z,1062
2023-03-22T06:06:46.123Z,1041
2023-03-22T06:07:55.082Z,1106
2023-03-22T06:09:04.256Z,1192
2023-03-22T06:10:13.444Z,1177
2023-03-22T06:11:22.689Z,1186
2023-03-22T06:12:31.820Z,1219
2023-03-22T06:13:40.982Z,1245
2023-03-22T06:14:50.108Z,1314
2023-03-22T06:15:59.285Z,1381
2023-03-22T06:17:08.481Z,1302
2023-03-22T06:18:16.649Z,1286
2023-03-22T06:19:25.844Z,1376
2023-03-22T06:20:34.983Z,1710
2023-03-22T06:21:44.153Z,1773
2023-03-22T06:22:53.329Z,2029
2023-03-22T06:24:02.498Z,2037
2023-03-22T06:25:11.701Z,2148
2023-03-22T06:26:19.888Z,2264
2023-03-22T06:27:28.095Z,2382
2023-03-22T06:28:36.313Z,2479
2023-03-22T06:29:44.445Z,2580
2023-03-22T06:30:54.019Z,2681
2023-03-22T06:32:02.843Z,2811
2023-03-22T06:33:11.959Z,2907
2023-03-22T06:34:21.167Z,2967
2023-03-22T06:35:30.304Z,3062
2023-03-22T06:36:39.475Z,3122
2023-03-22T06:37:48.645Z,3192
2023-03-22T06:38:57.850Z,3233
2023-03-22T06:40:07.015Z,3294
2023-03-22T06:41:16.176Z,3350
2023-03-22T06:42:25.353Z,3359
2023-03-22T06:43:34.496Z,3333
2023-03-22T06:44:42.776Z,3366
2023-03-22T06:45:51.916Z,3278
2023-03-22T06:47:01.100Z,3254
2023-03-22T06:48:10.217Z,3302
2023-03-22T06:49:19.414Z,3178
2023-03-22T06:50:28.571Z,3293
2023-03-22T06:51:37.756Z,3304
2023-03-22T06:52:45.915Z,2645
2023-03-22T06:53:54.140Z,3079
2023-03-22T06:55:03.295Z,3398
2023-03-22T06:56:12.445Z,3310
2023-03-22T06:57:20.702Z,4018
2023-03-22T06:58:28.824Z,2226
2023-03-22T06:59:37.999Z,3848
2023-03-22T07:00:47.189Z,3105
2023-03-22T07:01:56.362Z,2822
2023-03-22T07:03:05.516Z,2700
2023-03-22T07:04:14.687Z,2794
2023-03-22T07:05:23.922Z,2752
2023-03-22T07:06:33.058Z,2572
2023-03-22T07:07:42.242Z,2513
2023-03-22T07:08:51.467Z,2527
2023-03-22T07:10:00.566Z,2560
2023-03-22T07:11:09.729Z,2623
2023-03-22T07:12:18.925Z,2765
2023-03-22T07:13:27.105Z,2843
2023-03-22T07:14:36.296Z,2891
2023-03-22T07:15:45.451Z,2968
2023-03-22T07:16:54.607Z,2922
2023-03-22T07:18:03.823Z,3324
2023-03-22T07:19:12.943Z,3206
2023-03-22T07:20:22.129Z,3293
2023-03-22T07:21:30.355Z,3332
2023-03-22T07:22:38.504Z,3275
2023-03-22T07:23:47.699Z,3158
2023-03-22T07:24:56.875Z,3093
2023-03-22T07:26:06.061Z,3074
2023-03-22T07:27:15.199Z,3108
2023-03-22T07:28:24.433Z,3218
2023-03-22T07:29:33.536Z,3328
2023-03-22T07:30:42.775Z,3494
2023-03-22T07:31:51.887Z,3735
2023-03-22T07:33:01.085Z,3984
2023-03-22T07:34:10.224Z,4244
2023-03-22T07:35:19.396Z,4364
2023-03-22T07:36:28.638Z,4943
2023-03-22T07:37:36.802Z,4786
2023-03-22T07:38:45.955Z,4589
2023-03-22T07:39:55.120Z,5648
2023-03-22T07:41:04.344Z,6857
2023-03-22T07:42:13.467Z,8277
2023-03-22T07:43:22.638Z,8080
2023-03-22T07:44:31.822Z,8316
2023-03-22T07:45:40.005Z,6954
2023-03-22T07:46:48.218Z,6571
2023-03-22T07:47:56.389Z,5826
2023-03-22T07:49:04.566Z,7544
2023-03-22T07:50:13.754Z,9714
2023-03-22T07:51:22.910Z,6633
2023-03-22T07:52:32.077Z,6176
2023-03-22T07:53:40.275Z,5968
2023-03-22T07:54:48.465Z,5418
2023-03-22T07:55:57.642Z,5046
2023-03-22T07:58:15.989Z,6382
2023-03-22T07:59:25.150Z,7901
2023-03-22T08:00:34.452Z,8542
2023-03-22T08:01:43.499Z,5547
2023-03-22T08:02:52.734Z,5749
2023-03-22T08:04:01.859Z,7928
2023-03-22T08:05:11.091Z,6772
2023-03-22T08:06:20.192Z,6596
2023-03-22T08:07:29.536Z,5946
2023-03-22T08:08:38.693Z,7513
2023-03-22T08:09:46.734Z,6777
2023-03-22T08:10:56.062Z,6353
2023-03-22T08:12:05.141Z,6818
2023-03-22T08:13:14.250Z,6584
2023-03-22T08:14:23.404Z,7073
2023-03-22T08:15:32.603Z,7436
2023-03-22T08:16:41.950Z,6967
2023-03-22T08:17:51.063Z,5936
2023-03-22T08:18:59.213Z,6087
2023-03-22T08:20:07.382Z,6911
2023-03-22T08:21:15.526Z,7451
2023-03-22T08:22:23.703Z,7360
2023-03-22T08:23:33.214Z,7119
2023-03-22T08:24:42.038Z,8293
2023-03-22T08:25:51.305Z,8861
2023-03-22T08:27:00.393Z,6938
2023-03-22T08:28:09.589Z,8379
2023-03-22T08:29:18.785Z,7405
2023-03-22T08:30:27.973Z,7265
2023-03-22T08:31:37.324Z,7552
2023-03-22T08:32:46.352Z,7463
2023-03-22T08:33:55.579Z,7430
2023-03-22T08:35:04.589Z,7705
2023-03-22T08:36:13.852Z,7972
2023-03-22T08:37:22.015Z,7281
2023-03-22T08:38:31.211Z,6911
2023-03-22T08:39:40.328Z,6863
2023-03-22T08:40:49.585Z,6393
2023-03-22T08:41:58.815Z,9714
2023-03-22T08:43:07.828Z,8301
2023-03-22T08:44:16.981Z,8364
2023-03-22T08:45:25.203Z,7531
2023-03-22T08:46:33.366Z,6701
2023-03-22T08:47:41.631Z,6463
2023-03-22T08:48:49.905Z,7210
2023-03-22T08:49:59.102Z,7445
2023-03-22T08:51:08.092Z,7185
2023-03-22T08:52:17.282Z,7191
2023-03-22T08:53:26.481Z,5981
2023-03-22T08:54:35.664Z,5708
2023-03-22T08:55:44.773Z,5370
2023-03-22T08:56:54.076Z,5790
2023-03-22T08:58:03.124Z,5310
2023-03-22T08:59:12.399Z,7293
2023-03-22T09:00:21.533Z,7444
2023-03-22T09:01:30.751Z,8040
2023-03-22T09:02:39.910Z,8254
2023-03-22T09:03:48.140Z,6713
2023-03-22T09:04:57.374Z,9577
2023-03-22T09:06:06.342Z,6610
2023-03-22T09:07:15.575Z,8948
2023-03-22T09:08:24.803Z,12170
2023-03-22T09:09:33.996Z,7889
2023-03-22T09:10:43.062Z,7427
2023-03-22T09:11:51.396Z,7080
2023-03-22T09:12:59.410Z,10167
2023-03-22T09:15:16.806Z,11903
2023-03-22T09:16:24.973Z,15481
2023-03-22T09:18:42.320Z,10391
2023-03-22T09:19:50.526Z,12278
2023-03-22T09:20:59.927Z,8712
2023-03-22T09:23:18.106Z,6786
2023-03-22T09:24:27.238Z,7119
2023-03-22T09:25:36.494Z,6540
2023-03-22T09:26:45.672Z,5826
2023-03-22T09:27:54.888Z,5461
2023-03-22T09:29:03.998Z,5131
2023-03-22T09:30:13.162Z,5359
2023-03-22T09:31:22.283Z,5432
2023-03-22T09:32:31.410Z,7417
2023-03-22T09:33:40.713Z,6890
2023-03-22T09:34:49.006Z,7722
2023-03-22T09:35:58.105Z,8820
2023-03-22T09:37:07.121Z,8800
2023-03-22T09:38:16.382Z,8886
2023-03-22T09:39:25.491Z,9465
2023-03-22T09:40:34.643Z,9615
2023-03-22T09:41:43.871Z,8835
2023-03-22T09:42:53.002Z,9444
2023-03-22T09:44:02.296Z,10181
2023-03-22T09:45:11.331Z,9493
2023-03-22T09:46:20.676Z,9548
2023-03-22T09:47:29.779Z,10385
2023-03-22T09:48:38.990Z,11563
2023-03-22T09:49:47.059Z,9446
2023-03-22T09:50:56.211Z,9723
2023-03-22T09:52:05.396Z,10560
2023-03-22T09:53:14.545Z,9699
2023-03-22T09:54:23.736Z,5518
2023-03-22T09:55:33.046Z,15429
2023-03-22T09:56:42.205Z,14698
2023-03-22T09:57:51.409Z,7301
2023-03-22T09:59:00.452Z,7146
2023-03-22T10:00:09.701Z,15774
2023-03-22T10:01:18.856Z,7008
2023-03-22T10:02:28.014Z,12963
2023-03-22T10:03:37.180Z,11373
2023-03-22T10:04:45.449Z,10158
2023-03-22T10:05:54.447Z,10401
2023-03-22T10:07:03.670Z,10598
2023-03-22T10:08:11.928Z,9450
2023-03-22T10:09:20.131Z,11652
2023-03-22T10:10:28.201Z,10086
2023-03-22T10:11:36.438Z,8511
2023-03-22T10:12:45.653Z,7782
2023-03-22T10:13:54.732Z,8030
2023-03-22T10:15:03.919Z,8105
2023-03-22T10:16:13.210Z,9265
2023-03-22T10:17:22.362Z,9866
2023-03-22T10:18:31.520Z,10017
2023-03-22T10:19:40.757Z,9878
2023-03-22T10:20:49.777Z,9636
2023-03-22T10:21:59.069Z,8828
2023-03-22T10:23:08.196Z,8787
2023-03-22T10:24:17.331Z,8540
2023-03-22T10:25:26.514Z,8240
2023-03-22T10:26:34.813Z,7566
2023-03-22T10:27:43.964Z,6846
2023-03-22T10:28:53.107Z,5929
2023-03-22T10:30:02.372Z,5828
2023-03-22T10:31:11.430Z,6754
2023-03-22T10:32:20.616Z,6192
2023-03-22T10:33:29.822Z,6144
2023-03-22T10:34:38.989Z,6617
2023-03-22T10:35:48.193Z,6786
2023-03-22T10:36:57.404Z,7006
2023-03-22T10:38:06.535Z,7014
2023-03-22T10:39:15.694Z,7139
2023-03-22T10:40:24.873Z,8167
2023-03-22T10:41:33.067Z,10747
2023-03-22T10:42:42.080Z,11993
2023-03-22T10:43:51.262Z,11776
2023-03-22T10:45:00.413Z,11863
2023-03-22T10:46:09.584Z,13659
2023-03-22T10:47:18.861Z,14599
2023-03-22T10:48:27.943Z,13077
2023-03-22T10:49:36.141Z,14521
2023-03-22T10:51:53.488Z,12555
2023-03-22T10:54:11.820Z,14751
2023-03-22T10:55:20.142Z,12090
2023-03-22T10:56:28.455Z,13285
2023-03-22T10:58:46.541Z,17923
2023-03-22T10:59:55.806Z,13489
2023-03-22T11:02:14.162Z,12398
2023-03-22T11:03:23.231Z,10706
2023-03-22T11:04:32.434Z,12937
2023-03-22T11:05:41.789Z,20297
2023-03-22T11:06:50.751Z,15129
2023-03-22T11:07:59.933Z,17848
2023-03-22T11:09:09.108Z,15852
2023-03-22T11:10:17.334Z,15142
2023-03-22T11:11:25.491Z,14383
2023-03-22T11:12:34.666Z,14587
2023-03-22T11:13:43.823Z,12803
2023-03-22T11:14:53.016Z,9927
2023-03-22T11:16:02.240Z,10450
2023-03-22T11:17:11.453Z,12333
2023-03-22T11:18:20.612Z,14162
2023-03-22T11:19:29.836Z,14389
2023-03-22T11:20:39.006Z,13421
2023-03-22T11:21:48.123Z,11750
2023-03-22T11:22:56.222Z,10312
2023-03-22T11:24:04.590Z,11513
2023-03-22T11:25:13.832Z,10869
2023-03-22T11:26:22.894Z,9686
2023-03-22T11:27:32.114Z,9578
2023-03-22T11:28:41.211Z,9690
2023-03-22T11:29:50.399Z,9493
2023-03-22T11:30:59.599Z,9207
2023-03-22T11:32:08.756Z,8774
2023-03-22T11:33:17.942Z,8494
2023-03-22T11:34:27.146Z,8552
2023-03-22T11:35:36.326Z,9087
2023-03-22T11:36:45.396Z,8685
2023-03-22T11:37:54.632Z,8434
2023-03-22T11:39:02.808Z,9002
2023-03-22T11:41:21.168Z,9631
2023-03-22T11:42:30.344Z,9531
2023-03-22T11:43:39.434Z,9495
2023-03-22T11:44:48.742Z,9583
2023-03-22T11:45:57.843Z,9663
2023-03-22T11:47:06.994Z,9792
2023-03-22T11:48:15.231Z,9312
2023-03-22T11:49:23.415Z,8927
2023-03-22T11:50:32.569Z,8666
2023-03-22T11:51:40.841Z,8909
2023-03-22T11:52:48.826Z,8790
2023-03-22T11:55:07.275Z,9027
2023-03-22T11:56:16.341Z,9245
2023-03-22T11:57:25.502Z,8888
2023-03-22T11:58:34.753Z,8965
2023-03-22T11:59:43.933Z,9088
2023-03-22T12:00:53.179Z,8385
2023-03-22T12:02:02.485Z,8491
2023-03-22T12:03:11.574Z,8663
2023-03-22T12:04:20.695Z,8633
2023-03-22T12:05:29.857Z,8494
2023-03-22T12:06:39.123Z,8209
2023-03-22T12:07:47.179Z,7710
2023-03-22T12:08:56.265Z,7257
2023-03-22T12:10:05.582Z,7000
2023-03-22T12:11:14.797Z,6820
2023-03-22T12:12:23.742Z,6630
2023-03-22T12:13:32.926Z,6479
2023-03-22T12:14:42.083Z,6304
2023-03-22T12:15:51.392Z,6261
2023-03-22T12:17:00.434Z,6135
2023-03-22T12:18:08.643Z,5888
2023-03-22T12:19:17.797Z,5867
2023-03-22T12:20:26.008Z,5966
2023-03-22T12:21:35.160Z,5816
2023-03-22T12:22:43.363Z,5905
2023-03-22T12:23:51.564Z,6041
2023-03-22T12:25:00.729Z,5973
2023-03-22T12:26:09.902Z,5850
2023-03-22T12:27:19.071Z,5816
2023-03-22T12:28:28.238Z,5999
2023-03-22T12:29:37.408Z,6363
2023-03-22T12:30:46.581Z,6860
2023-03-22T12:31:55.771Z,7023
2023-03-22T12:33:04.941Z,7127
2023-03-22T12:34:14.098Z,6897
2023-03-22T12:35:23.289Z,6410
2023-03-22T12:36:32.448Z,5876
2023-03-22T12:37:41.634Z,6006
2023-03-22T12:38:50.788Z,5734
2023-03-22T12:41:08.146Z,5150
2023-03-22T12:42:17.330Z,4732
2023-03-22T12:43:26.491Z,4518
2023-03-22T12:44:35.677Z,4425
2023-03-22T12:45:44.861Z,4506
2023-03-22T12:46:54.025Z,4456
2023-03-22T12:48:03.195Z,4249
2023-03-22T12:49:12.344Z,4442
2023-03-22T12:50:21.526Z,4719
2023-03-22T12:51:30.708Z,4627
2023-03-22T12:52:39.877Z,4448
2023-03-22T12:53:49.047Z,4471
2023-03-22T12:54:57.355Z,4684
2023-03-22T12:56:06.413Z,4712
2023-03-22T12:57:15.580Z,4710
2023-03-22T12:58:24.755Z,4452
2023-03-22T12:59:33.922Z,4468
2023-03-22T13:00:43.112Z,4574
2023-03-22T13:01:51.287Z,4317
2023-03-22T13:02:59.488Z,4029
2023-03-22T13:04:07.674Z,4238
2023-03-22T13:05:15.861Z,4632
2023-03-22T13:06:25.035Z,5050
2023-03-22T13:07:34.198Z,4491
2023-03-22T13:08:43.370Z,4437
2023-03-22T13:09:52.535Z,4873
2023-03-22T13:11:00.730Z,5105
2023-03-22T13:12:09.934Z,5408
2023-03-22T13:13:19.089Z,5236
2023-03-22T13:14:28.263Z,5373
2023-03-22T13:15:37.431Z,5885
2023-03-22T13:16:46.605Z,6950
2023-03-22T13:17:55.771Z,7640
2023-03-22T13:19:04.954Z,7768
2023-03-22T13:20:14.110Z,8397
2023-03-22T13:21:23.294Z,8480
2023-03-22T13:22:32.455Z,9113
2023-03-22T13:23:41.623Z,10070
2023-03-22T13:24:50.806Z,10645
2023-03-22T13:25:58.996Z,10812
2023-03-22T13:27:08.170Z,12705
2023-03-22T13:28:16.364Z,14244
2023-03-22T13:29:24.538Z,10513
2023-03-22T13:30:32.746Z,15180
2023-03-22T13:31:40.924Z,11619
2023-03-22T13:32:50.110Z,10528
2023-03-22T13:33:59.281Z,10719
2023-03-22T13:35:08.451Z,10849
2023-03-22T13:36:17.604Z,10272
2023-03-22T13:37:26.794Z,9709
2023-03-22T13:38:35.975Z,7791
2023-03-22T13:39:45.134Z,7180
2023-03-22T13:40:54.321Z,6759
2023-03-22T13:44:21.849Z,8041
2023-03-22T13:45:30.013Z,6227
2023-03-22T13:46:38.210Z,5340
2023-03-22T13:47:47.398Z,5245
2023-03-22T13:48:56.585Z,5851
2023-03-22T13:50:05.744Z,9409
2023-03-22T13:51:14.900Z,10593
2023-03-22T13:52:24.081Z,9450
2023-03-22T13:53:33.251Z,8049
2023-03-22T13:54:42.410Z,7578
2023-03-22T13:55:51.616Z,8350
2023-03-22T13:57:00.776Z,8318
2023-03-22T13:58:08.977Z,9415
2023-03-22T13:59:17.154Z,8628
2023-03-22T14:00:26.323Z,7351
2023-03-22T14:01:35.502Z,6885
2023-03-22T14:02:44.671Z,6961
2023-03-22T14:03:53.855Z,7046
2023-03-22T14:05:03.021Z,7642
2023-03-22T14:06:12.205Z,8136
2023-03-22T14:07:21.363Z,8447
2023-03-22T14:09:39.709Z,7410
2023-03-22T14:10:48.878Z,6607
2023-03-22T14:11:58.053Z,6688
2023-03-22T14:13:07.221Z,7641
2023-03-22T14:14:15.416Z,9176
2023-03-22T14:15:24.592Z,9380
2023-03-22T14:16:33.759Z,8746
2023-03-22T14:17:42.922Z,7834
2023-03-22T14:18:52.100Z,8263
2023-03-22T14:20:01.279Z,7773
2023-03-22T14:21:10.454Z,8574
2023-03-22T14:52:13.184Z,3679
2023-03-22T14:54:31.534Z,3655
2023-03-22T14:55:40.711Z,3773
2023-03-22T14:56:49.886Z,3904
2023-03-22T14:57:58.087Z,3196
2023-03-22T15:00:16.414Z,2903
2023-03-22T15:01:25.580Z,2865
2023-03-22T15:02:34.754Z,2659
2023-03-22T15:03:43.927Z,2533
2023-03-22T15:04:53.165Z,2569
2023-03-22T15:06:02.283Z,2550
2023-03-22T15:07:11.573Z,2437
2023-03-22T15:08:20.646Z,2305
2023-03-22T15:09:29.912Z,2314
2023-03-22T15:10:39.123Z,2273
2023-03-22T15:11:48.155Z,2418
2023-03-22T15:12:56.396Z,2523
2023-03-22T15:15:14.663Z,2216
2023-03-22T15:16:22.991Z,1906
2023-03-22T15:17:31.221Z,1984
2023-03-22T15:18:40.420Z,2147
2023-03-22T15:19:49.587Z,1943
2023-03-22T15:20:58.669Z,1879
2023-03-22T15:22:07.910Z,1811
2023-03-22T15:23:17.005Z,1651
2023-03-22T15:24:26.232Z,1567
2023-03-22T15:25:35.389Z,1587
2023-03-22T15:26:44.646Z,1366
2023-03-22T15:27:53.677Z,1440
2023-03-22T15:29:01.809Z,1488
2023-03-22T15:30:10.146Z,1650
2023-03-22T15:32:28.465Z,1766
2023-03-22T15:33:37.649Z,1839
2023-03-22T15:34:46.841Z,1707
2023-03-22T15:35:56.046Z,1796
2023-03-22T15:37:05.185Z,1687
2023-03-22T15:38:14.367Z,1613
2023-03-22T15:39:23.535Z,1581
2023-03-22T15:40:32.706Z,1726
2023-03-22T15:41:41.704Z,1748
2023-03-22T15:42:50.888Z,1942
2023-03-22T15:44:00.249Z,2064
2023-03-22T15:45:08.363Z,2313
2023-03-22T15:46:17.606Z,2156
2023-03-22T15:47:26.735Z,2196
2023-03-22T15:48:35.932Z,2273
2023-03-22T15:49:45.092Z,2141
2023-03-22T15:50:54.320Z,2366
2023-03-22T15:52:03.409Z,2462
2023-03-22T15:53:12.462Z,2456
2023-03-22T15:54:20.743Z,2437
2023-03-22T15:55:29.002Z,2492
2023-03-22T15:56:38.190Z,2699
2023-03-22T15:57:47.365Z,2721
2023-03-22T15:58:56.537Z,2889
2023-03-22T16:00:05.537Z,3043
2023-03-22T16:01:14.908Z,3009
2023-03-22T16:02:23.111Z,2905
2023-03-22T16:03:31.078Z,2682
2023-03-22T16:04:40.434Z,2744
2023-03-22T16:05:49.608Z,3632
2023-03-22T16:06:58.780Z,3829
2023-03-22T16:08:07.938Z,3434
2023-03-22T16:09:17.115Z,3113
2023-03-22T16:10:26.283Z,2790
2023-03-22T16:11:35.437Z,2437
2023-03-22T16:12:44.641Z,2142
2023-03-22T16:13:53.856Z,1974
2023-03-22T16:15:02.991Z,2307
2023-03-22T16:16:11.980Z,2269
2023-03-22T16:17:21.310Z,2027
2023-03-22T16:18:29.327Z,1869
2023-03-22T16:19:38.705Z,1915
2023-03-22T16:20:47.695Z,1800
2023-03-22T16:21:56.882Z,1955
2023-03-22T16:23:06.036Z,1894
2023-03-22T16:24:15.211Z,1740
2023-03-22T16:25:24.423Z,1808
2023-03-22T16:26:32.577Z,2317
2023-03-22T16:27:40.987Z,2449
2023-03-22T16:28:48.935Z,2185
2023-03-22T16:29:57.232Z,1852
2023-03-22T16:31:06.496Z,1635
2023-03-22T16:32:15.622Z,1502
2023-03-22T16:33:24.775Z,1533
2023-03-22T16:34:34.009Z,1500
2023-03-22T16:35:43.041Z,1509
2023-03-22T16:36:52.361Z,1413
2023-03-22T16:38:01.493Z,1364
2023-03-22T16:39:10.674Z,1284
2023-03-22T16:40:19.723Z,1166
2023-03-22T16:41:29.028Z,1117
2023-03-22T16:42:38.205Z,1089
2023-03-22T16:43:47.421Z,1030
2023-03-22T16:44:55.505Z,1020
2023-03-22T16:46:04.592Z,1025